createdAt,value
2022-08-31T00:02:39.649Z,51.66
2022-08-31T00:08:16.790Z,51.47
2022-08-31T00:10:46.178Z,51.75
2022-08-31T00:13:12.780Z,51.67
2022-08-31T00:15:40.121Z,51.78
2022-08-31T00:18:06.903Z,51.70
2022-08-31T00:20:34.739Z,51.85
2022-08-31T00:23:07.126Z,51.88
2022-08-31T00:25:34.356Z,52.29
2022-08-31T00:28:01.591Z,52.33
2022-08-31T00:30:28.200Z,52.57
2022-08-31T00:32:54.723Z,52.52
2022-08-31T00:35:24.991Z,52.34
2022-08-31T00:37:51.388Z,52.34
2022-08-31T00:40:17.849Z,52.51
2022-08-31T00:42:44.296Z,52.77
2022-08-31T00:45:10.944Z,52.97
2022-08-31T00:47:37.463Z,53.06
2022-08-31T00:50:07.754Z,53.13
2022-08-31T00:52:37.628Z,53.15
2022-08-31T00:55:35.277Z,53.13
2022-08-31T00:58:06.288Z,53.58
2022-08-31T01:00:34.317Z,53.67
2022-08-31T01:03:03.112Z,54.02
2022-08-31T01:05:31.289Z,53.78
2022-08-31T01:08:00.834Z,54.02
2022-08-31T01:10:32.149Z,53.81
2022-08-31T01:12:59.936Z,53.46
2022-08-31T01:15:29.178Z,53.73
2022-08-31T01:17:59.003Z,54.13
2022-08-31T01:20:32.254Z,54.26
2022-08-31T01:23:22.227Z,53.95
2022-08-31T01:25:51.253Z,54.50
2022-08-31T01:28:17.746Z,53.90
2022-08-31T01:30:56.724Z,54.30
2022-08-31T01:33:23.087Z,54.75
2022-08-31T01:35:49.471Z,54.31
2022-08-31T01:38:15.878Z,54.64
2022-08-31T01:40:51.664Z,54.73
2022-08-31T01:43:18.257Z,54.88
2022-08-31T01:45:44.757Z,55.20
2022-08-31T01:48:11.766Z,55.25
2022-08-31T01:50:38.655Z,55.10
2022-08-31T01:53:05.481Z,55.16
2022-08-31T01:55:31.851Z,55.23
2022-08-31T01:57:59.634Z,55.20
2022-08-31T02:00:28.666Z,55.35
2022-08-31T02:02:56.984Z,55.81
2022-08-31T02:05:23.302Z,55.61
2022-08-31T02:07:49.725Z,55.71
2022-08-31T02:10:16.139Z,55.52
2022-08-31T02:12:42.618Z,55.34
2022-08-31T02:15:10.139Z,55.57
2022-08-31T02:17:36.496Z,55.58
2022-08-31T02:20:05.965Z,55.64
2022-08-31T02:22:32.408Z,55.71
2022-08-31T02:24:58.754Z,55.66
2022-08-31T02:27:25.612Z,56.09
2022-08-31T02:29:52.059Z,56.09
2022-08-31T02:32:19.622Z,56.16
2022-08-31T02:34:50.773Z,56.14
2022-08-31T02:37:18.325Z,56.22
2022-08-31T02:39:47.444Z,56.66
2022-08-31T02:42:15.676Z,56.81
2022-08-31T02:44:44.895Z,56.48
2022-08-31T02:47:11.221Z,56.42
2022-08-31T02:49:37.608Z,56.19
2022-08-31T02:52:04.224Z,56.98
2022-08-31T02:54:30.721Z,57.55
2022-08-31T02:56:57.102Z,57.27
2022-08-31T02:59:23.484Z,57.38
2022-08-31T03:01:53.083Z,57.19
2022-08-31T03:04:19.564Z,57.34
2022-08-31T03:06:47.802Z,57.17
2022-08-31T03:09:15.615Z,57.12
2022-08-31T03:11:42.526Z,57.59
2022-08-31T03:14:08.931Z,57.61
2022-08-31T03:16:35.400Z,57.29
2022-08-31T03:19:01.833Z,57.61
2022-08-31T03:21:28.252Z,57.85
2022-08-31T03:23:54.595Z,58.38
2022-08-31T03:26:20.971Z,57.83
2022-08-31T03:28:47.335Z,57.89
2022-08-31T03:31:13.750Z,58.08
2022-08-31T03:33:40.175Z,58.45
2022-08-31T03:36:07.132Z,58.60
2022-08-31T03:38:34.011Z,58.85
2022-08-31T03:41:01.488Z,59.00
2022-08-31T03:43:28.112Z,59.67
2022-08-31T03:45:54.868Z,58.78
2022-08-31T03:48:21.303Z,58.83
2022-08-31T03:50:47.651Z,58.96
2022-08-31T03:53:14.262Z,58.93
2022-08-31T03:55:42.863Z,59.29
2022-08-31T03:58:10.621Z,59.48
2022-08-31T04:00:37.498Z,59.38
2022-08-31T04:03:04.187Z,60.17
2022-08-31T04:05:34.041Z,59.72
2022-08-31T04:08:00.836Z,59.23
2022-08-31T04:10:27.246Z,58.75
2022-08-31T04:12:53.778Z,58.96
2022-08-31T04:15:22.125Z,59.28
2022-08-31T04:17:48.515Z,59.55
2022-08-31T04:20:16.516Z,59.68
2022-08-31T04:22:42.864Z,59.63
2022-08-31T04:25:10.266Z,59.75
2022-08-31T04:27:38.105Z,59.82
2022-08-31T04:30:07.626Z,60.13
2022-08-31T04:32:34.968Z,60.30
2022-08-31T04:35:01.912Z,60.47
2022-08-31T04:37:29.372Z,60.68
2022-08-31T04:39:59.133Z,60.81
2022-08-31T04:42:26.039Z,60.79
2022-08-31T04:44:52.384Z,60.41
2022-08-31T04:47:20.233Z,60.70
2022-08-31T04:49:47.561Z,61.42
2022-08-31T04:52:14.035Z,61.90
2022-08-31T04:54:40.403Z,61.76
2022-08-31T04:57:06.780Z,62.07
2022-08-31T04:59:33.131Z,62.34
2022-08-31T05:01:59.812Z,62.48
2022-08-31T05:04:28.868Z,62.08
2022-08-31T05:06:55.203Z,62.05
2022-08-31T05:09:23.530Z,62.33
2022-08-31T05:11:51.988Z,61.95
2022-08-31T05:14:18.896Z,62.60
2022-08-31T05:16:45.801Z,62.58
2022-08-31T05:19:12.806Z,62.49
2022-08-31T05:21:41.462Z,62.60
2022-08-31T05:24:16.975Z,62.45
2022-08-31T05:26:48.129Z,62.60
2022-08-31T05:29:16.068Z,62.94
2022-08-31T05:31:45.557Z,63.40
2022-08-31T05:34:15.121Z,64.22
2022-08-31T05:36:43.532Z,66.18
2022-08-31T05:39:12.290Z,65.73
2022-08-31T05:41:46.126Z,66.88
2022-08-31T05:44:13.067Z,67.91
2022-08-31T05:46:40.582Z,68.99
2022-08-31T05:49:07.935Z,69.10
2022-08-31T05:51:38.478Z,68.36
2022-08-31T05:54:05.411Z,68.30
2022-08-31T05:56:31.883Z,67.07
2022-08-31T05:58:58.638Z,66.14
2022-08-31T06:01:31.139Z,66.60
2022-08-31T06:03:58.825Z,66.50
2022-08-31T06:06:25.956Z,66.96
2022-08-31T06:08:53.363Z,66.10
2022-08-31T06:11:22.181Z,66.58
2022-08-31T06:13:52.488Z,66.86
2022-08-31T06:16:20.332Z,65.84
2022-08-31T06:18:50.920Z,65.64
2022-08-31T06:21:23.423Z,65.98
2022-08-31T06:23:52.011Z,66.52
2022-08-31T06:26:20.301Z,66.51
2022-08-31T06:28:51.450Z,67.07
2022-08-31T06:31:27.581Z,68.18
2022-08-31T06:33:54.999Z,69.14
2022-08-31T06:36:24.563Z,70.32
2022-08-31T06:38:52.574Z,71.08
2022-08-31T06:41:22.310Z,71.11
2022-08-31T06:43:49.163Z,71.24
2022-08-31T06:46:17.768Z,71.68
2022-08-31T06:48:44.918Z,73.07
2022-08-31T06:51:12.571Z,73.97
2022-08-31T06:53:42.255Z,74.21
2022-08-31T06:56:20.941Z,74.15
2022-08-31T06:58:53.908Z,74.96
2022-08-31T07:01:35.598Z,76.41
2022-08-31T07:04:09.056Z,78.01
2022-08-31T07:06:39.116Z,80.58
2022-08-31T07:09:08.455Z,82.91
2022-08-31T07:11:44.630Z,84.85
2022-08-31T07:14:14.504Z,86.01
2022-08-31T07:16:42.524Z,87.89
2022-08-31T07:19:10.220Z,89.94
2022-08-31T07:21:40.552Z,89.32
2022-08-31T07:24:07.948Z,92.37
2022-08-31T07:26:54.890Z,93.93
2022-08-31T07:29:22.974Z,96.32
2022-08-31T07:31:50.455Z,97.61
2022-08-31T07:34:26.573Z,98.11
2022-08-31T07:37:13.199Z,99.79
2022-08-31T07:40:02.249Z,99.47
2022-08-31T07:42:33.879Z,100.00
2022-08-31T07:45:02.187Z,100.00
2022-08-31T07:47:29.043Z,99.56
2022-08-31T07:49:58.377Z,99.90
2022-08-31T07:52:30.120Z,99.90
2022-08-31T07:55:06.252Z,99.95
2022-08-31T07:57:42.433Z,98.96
2022-08-31T08:00:14.609Z,100.00
2022-08-31T08:02:46.111Z,100.00
2022-08-31T08:05:26.701Z,99.84
2022-08-31T08:07:57.362Z,100.00
2022-08-31T08:10:24.143Z,100.00
2022-08-31T08:13:00.658Z,100.00
2022-08-31T08:15:33.801Z,99.79
2022-08-31T08:18:03.217Z,100.00
2022-08-31T08:20:34.205Z,100.00
2022-08-31T08:23:13.941Z,99.86
2022-08-31T08:25:41.347Z,100.00
2022-08-31T08:28:35.490Z,100.00
2022-08-31T08:31:01.063Z,100.00
2022-08-31T08:33:28.782Z,100.00
2022-08-31T08:35:57.830Z,100.00
2022-08-31T08:38:32.046Z,100.00
2022-08-31T08:41:00.955Z,100.00
2022-08-31T08:43:34.849Z,100.00
2022-08-31T08:46:20.091Z,99.90
2022-08-31T08:48:55.696Z,100.00
2022-08-31T08:51:26.175Z,99.82
2022-08-31T08:53:59.850Z,100.00
2022-08-31T08:56:33.291Z,100.00
2022-08-31T08:59:00.477Z,99.84
2022-08-31T09:01:28.744Z,100.00
2022-08-31T09:04:07.226Z,100.00
2022-08-31T09:06:54.541Z,100.00
2022-08-31T09:09:49.036Z,100.00
2022-08-31T09:12:36.009Z,100.00
2022-08-31T09:15:36.371Z,100.00
2022-08-31T09:18:34.677Z,100.00
2022-08-31T09:21:13.433Z,100.00
2022-08-31T09:23:44.143Z,100.00
2022-08-31T09:26:16.336Z,100.00
2022-08-31T09:28:48.167Z,100.00
2022-08-31T09:31:40.206Z,100.00
2022-08-31T09:34:24.738Z,100.00
2022-08-31T09:36:51.287Z,100.00
2022-08-31T09:39:29.274Z,100.00
2022-08-31T09:42:12.584Z,100.00
2022-08-31T09:44:43.116Z,100.00
2022-08-31T09:47:56.049Z,100.00
2022-08-31T09:50:47.706Z,100.00
2022-08-31T09:53:44.405Z,100.00
2022-08-31T09:56:23.103Z,100.00
2022-08-31T09:58:52.332Z,100.00
2022-08-31T10:01:33.961Z,100.00
2022-08-31T10:04:36.534Z,100.00
2022-08-31T10:07:28.735Z,100.00
2022-08-31T10:10:01.980Z,100.00
2022-08-31T10:13:04.072Z,100.00
2022-08-31T10:15:39.356Z,100.00
2022-08-31T10:18:19.147Z,100.00
2022-08-31T10:21:07.826Z,100.00
2022-08-31T10:23:54.121Z,100.00
2022-08-31T10:26:29.037Z,100.00
2022-08-31T10:28:59.492Z,100.00
2022-08-31T10:31:38.316Z,100.00
2022-08-31T10:34:31.732Z,100.00
2022-08-31T10:37:24.800Z,100.00
2022-08-31T10:39:58.549Z,100.00
2022-08-31T10:42:30.049Z,100.00
2022-08-31T10:45:04.901Z,100.00
2022-08-31T10:47:41.275Z,100.00
2022-08-31T10:50:10.769Z,100.00
2022-08-31T10:53:02.761Z,100.00
2022-08-31T10:55:37.112Z,100.00
2022-08-31T10:58:06.555Z,100.00
2022-08-31T11:00:52.926Z,100.00
2022-08-31T11:03:51.911Z,100.00
2022-08-31T11:06:30.661Z,100.00
2022-08-31T11:09:05.818Z,100.00
2022-08-31T11:11:47.459Z,100.00
2022-08-31T11:14:33.180Z,100.00
2022-08-31T11:17:11.875Z,100.00
2022-08-31T11:20:15.109Z,100.00
2022-08-31T11:22:45.036Z,100.00
2022-08-31T11:25:24.876Z,100.00
2022-08-31T11:28:08.126Z,100.00
2022-08-31T11:30:42.235Z,100.00
2022-08-31T11:33:16.213Z,100.00
2022-08-31T11:35:57.172Z,100.00
2022-08-31T11:38:47.801Z,100.00
2022-08-31T11:41:36.411Z,99.76
2022-08-31T11:44:04.909Z,97.61
2022-08-31T11:46:34.792Z,99.67
2022-08-31T11:49:01.234Z,99.38
2022-08-31T11:51:42.568Z,97.72
2022-08-31T11:54:36.155Z,100.00
2022-08-31T11:57:03.230Z,100.00
2022-08-31T11:59:35.768Z,98.84
2022-08-31T12:02:20.689Z,98.75
2022-08-31T12:04:53.102Z,96.11
2022-08-31T12:07:35.693Z,95.78
2022-08-31T12:10:27.530Z,100.00
2022-08-31T12:13:18.546Z,94.00
2022-08-31T12:16:01.026Z,97.74
2022-08-31T12:18:44.811Z,97.83
2022-08-31T12:21:56.765Z,98.81
2022-08-31T12:24:31.903Z,94.54
2022-08-31T12:27:07.717Z,91.43
2022-08-31T12:29:39.495Z,89.78
2022-08-31T12:32:36.203Z,89.01
2022-08-31T12:35:15.994Z,89.93
2022-08-31T12:37:42.547Z,89.33
2022-08-31T12:40:16.682Z,85.84
2022-08-31T12:42:55.370Z,81.24
2022-08-31T12:45:49.737Z,85.83
2022-08-31T12:48:37.385Z,78.37
2022-08-31T12:51:45.233Z,77.91
2022-08-31T12:54:29.574Z,77.44
2022-08-31T12:57:28.183Z,77.36
2022-08-31T13:00:15.867Z,81.61
2022-08-31T13:02:45.852Z,75.60
2022-08-31T13:05:29.361Z,73.62
2022-08-31T13:07:56.987Z,75.88
2022-08-31T13:10:35.279Z,70.42
2022-08-31T13:13:10.108Z,73.54
2022-08-31T13:15:40.131Z,67.63
2022-08-31T13:18:22.570Z,65.97
2022-08-31T13:21:05.586Z,68.72
2022-08-31T13:23:38.407Z,65.75
2022-08-31T13:26:19.704Z,64.14
2022-08-31T13:29:07.612Z,63.61
2022-08-31T13:31:45.805Z,67.87
2022-08-31T13:34:12.258Z,67.48
2022-08-31T13:36:54.878Z,65.09
2022-08-31T13:39:35.015Z,64.79
2022-08-31T13:42:12.673Z,65.31
2022-08-31T13:44:44.059Z,66.55
2022-08-31T13:47:20.454Z,65.17
2022-08-31T13:49:53.056Z,64.72
2022-08-31T13:52:27.927Z,61.49
2022-08-31T13:55:03.090Z,59.27
2022-08-31T13:57:35.012Z,58.35
2022-08-31T14:00:38.932Z,59.41
2022-08-31T14:03:45.564Z,53.13
2022-08-31T14:06:23.708Z,54.01
2022-08-31T14:09:08.676Z,55.55
2022-08-31T14:11:35.482Z,54.29
2022-08-31T14:14:08.226Z,56.06
2022-08-31T14:16:43.748Z,54.52
2022-08-31T14:19:38.612Z,53.31
2022-08-31T14:22:32.994Z,52.69
2022-08-31T14:25:00.816Z,55.06
2022-08-31T14:27:28.743Z,54.98
2022-08-31T14:29:55.780Z,53.98
2022-08-31T14:32:22.658Z,54.70
2022-08-31T14:34:49.184Z,53.57
2022-08-31T14:37:22.297Z,52.53
2022-08-31T14:39:51.155Z,51.58
2022-08-31T14:42:19.074Z,52.48
2022-08-31T14:44:56.432Z,52.39
2022-08-31T14:47:25.077Z,51.70
2022-08-31T14:49:52.029Z,52.37
2022-08-31T14:52:18.933Z,52.55
2022-08-31T14:54:45.974Z,52.74
2022-08-31T14:57:15.799Z,52.32
2022-08-31T14:59:44.557Z,51.70
2022-08-31T15:02:13.568Z,52.09
2022-08-31T15:04:45.333Z,51.50
2022-08-31T15:07:13.367Z,52.06
2022-08-31T15:09:42.303Z,51.39
2022-08-31T15:12:11.770Z,52.76
2022-08-31T15:14:42.445Z,51.45
2022-08-31T15:17:19.844Z,49.92
2022-08-31T15:19:49.982Z,50.19
2022-08-31T15:22:17.366Z,50.80
2022-08-31T15:24:44.769Z,50.88
2022-08-31T15:27:14.976Z,53.04
2022-08-31T15:29:43.156Z,51.19
2022-08-31T15:32:10.334Z,49.71
2022-08-31T15:34:38.274Z,50.05
2022-08-31T15:37:06.987Z,48.34
2022-08-31T15:39:43.232Z,49.43
2022-08-31T15:42:11.407Z,48.04
2022-08-31T15:44:40.172Z,49.78
2022-08-31T15:47:27.339Z,49.11
2022-08-31T15:49:55.855Z,48.61
2022-08-31T15:52:27.600Z,48.08
2022-08-31T15:54:55.011Z,49.06
2022-08-31T15:57:23.276Z,48.92
2022-08-31T15:59:50.070Z,48.16
2022-08-31T16:02:20.843Z,47.88
2022-08-31T16:04:48.621Z,49.81
2022-08-31T16:07:15.070Z,49.19
2022-08-31T16:09:44.513Z,48.40
2022-08-31T16:12:15.375Z,47.68
2022-08-31T16:14:44.884Z,48.42
2022-08-31T16:17:14.192Z,48.21
2022-08-31T16:19:41.010Z,49.05
2022-08-31T16:22:08.186Z,47.57
2022-08-31T16:24:37.280Z,45.84
2022-08-31T16:27:11.288Z,47.69
2022-08-31T16:29:38.829Z,45.81
2022-08-31T16:32:08.288Z,45.82
2022-08-31T16:34:39.029Z,45.81
2022-08-31T16:37:07.605Z,45.57
2022-08-31T16:39:36.024Z,45.18
2022-08-31T16:42:04.434Z,45.17
2022-08-31T16:44:36.680Z,45.35
2022-08-31T16:47:04.637Z,45.69
2022-08-31T16:49:33.906Z,46.16
2022-08-31T16:52:03.241Z,46.39
2022-08-31T16:54:29.945Z,46.22
2022-08-31T16:56:59.443Z,47.46
2022-08-31T16:59:27.704Z,47.08
2022-08-31T17:01:54.902Z,47.75
2022-08-31T17:04:48.079Z,47.87
2022-08-31T17:07:12.487Z,47.40
2022-08-31T17:09:39.451Z,49.07
2022-08-31T17:12:10.078Z,49.06
2022-08-31T17:14:46.931Z,49.34
2022-08-31T17:17:17.091Z,50.18
2022-08-31T17:19:44.740Z,49.95
2022-08-31T17:22:21.396Z,50.75
2022-08-31T17:24:50.328Z,50.57
2022-08-31T17:27:19.730Z,50.82
2022-08-31T17:29:49.748Z,51.58
2022-08-31T17:32:20.002Z,50.82
2022-08-31T17:34:50.804Z,51.79
2022-08-31T17:37:22.899Z,52.95
2022-08-31T17:39:52.777Z,53.29
2022-08-31T17:42:26.618Z,52.97
2022-08-31T17:44:54.280Z,53.40
2022-08-31T17:47:22.421Z,53.17
2022-08-31T17:49:50.604Z,54.22
2022-08-31T17:52:20.180Z,54.15
2022-08-31T17:54:46.681Z,55.50
2022-08-31T17:57:15.218Z,54.86
2022-08-31T17:59:46.124Z,55.47
2022-08-31T18:02:16.596Z,56.49
2022-08-31T18:04:43.774Z,55.82
2022-08-31T18:07:11.540Z,55.55
2022-08-31T18:09:40.581Z,54.97
2022-08-31T18:12:07.738Z,56.17
2022-08-31T18:14:36.072Z,55.30
2022-08-31T18:17:04.832Z,55.83
2022-08-31T18:19:33.015Z,56.00
2022-08-31T18:22:00.822Z,56.35
2022-08-31T18:24:27.560Z,56.25
2022-08-31T18:26:56.554Z,56.97
2022-08-31T18:29:25.030Z,56.98
2022-08-31T18:31:53.869Z,57.25
2022-08-31T18:34:23.896Z,57.26
2022-08-31T18:36:53.147Z,57.28
2022-08-31T18:39:47.854Z,57.60
2022-08-31T18:42:27.884Z,58.13
2022-08-31T18:45:12.762Z,58.51
2022-08-31T18:47:39.113Z,58.67
2022-08-31T18:50:05.861Z,58.88
2022-08-31T18:52:32.368Z,59.42
2022-08-31T18:54:58.889Z,59.10
2022-08-31T18:57:27.456Z,59.29
2022-08-31T18:59:54.549Z,60.10
2022-08-31T19:02:22.670Z,60.00
2022-08-31T19:04:50.824Z,60.05
2022-08-31T19:07:18.831Z,60.22
2022-08-31T19:09:45.909Z,60.19
2022-08-31T19:12:16.231Z,60.43
2022-08-31T19:14:45.111Z,60.51
2022-08-31T19:17:11.634Z,61.09
2022-08-31T19:19:38.081Z,60.96
2022-08-31T19:22:04.464Z,60.80
2022-08-31T19:24:30.928Z,60.98
2022-08-31T19:26:59.028Z,61.26
2022-08-31T19:29:29.764Z,61.76
2022-08-31T19:31:59.244Z,61.64
2022-08-31T19:34:29.447Z,61.97
2022-08-31T19:36:57.791Z,61.92
2022-08-31T19:39:28.347Z,62.17
2022-08-31T19:41:57.747Z,62.46
2022-08-31T19:44:27.792Z,62.84
2022-08-31T19:46:56.225Z,62.92
2022-08-31T19:49:23.133Z,63.68
2022-08-31T19:51:56.629Z,63.30
2022-08-31T19:54:25.934Z,63.98
2022-08-31T19:56:54.001Z,63.53
2022-08-31T19:59:21.595Z,63.88
2022-08-31T20:01:52.850Z,64.18
2022-08-31T20:04:21.336Z,64.46
2022-08-31T20:06:52.258Z,65.16
2022-08-31T20:09:22.336Z,65.72
2022-08-31T20:11:50.323Z,65.60
2022-08-31T20:14:18.547Z,65.13
2022-08-31T20:16:45.575Z,65.91
2022-08-31T20:19:15.848Z,66.01
2022-08-31T20:21:42.533Z,66.96
2022-08-31T20:24:12.280Z,67.02
2022-08-31T20:26:51.705Z,66.46
2022-08-31T20:29:20.130Z,66.88
2022-08-31T20:31:48.849Z,67.36
2022-08-31T20:34:18.906Z,66.18
2022-08-31T20:36:49.900Z,67.63
2022-08-31T20:39:18.595Z,67.92
2022-08-31T20:41:47.249Z,68.84
2022-08-31T20:44:23.132Z,67.98
2022-08-31T20:47:13.997Z,67.99
2022-08-31T20:49:46.709Z,68.08
2022-08-31T20:52:15.480Z,67.75
2022-08-31T20:54:45.298Z,68.30
2022-08-31T20:57:13.670Z,68.75
2022-08-31T20:59:41.408Z,68.37
2022-08-31T21:02:09.162Z,69.29
2022-08-31T21:04:42.095Z,69.67
2022-08-31T21:07:13.138Z,68.42
2022-08-31T21:09:41.547Z,70.57
2022-08-31T21:12:10.341Z,69.92
2022-08-31T21:14:40.857Z,68.37
2022-08-31T21:17:07.767Z,68.98
2022-08-31T21:19:39.275Z,69.84
2022-08-31T21:22:08.892Z,69.20
2022-08-31T21:24:38.182Z,69.20
2022-08-31T21:27:10.323Z,69.56
2022-08-31T21:29:37.110Z,69.29
2022-08-31T21:32:06.108Z,69.12
2022-08-31T21:34:32.612Z,69.85
2022-08-31T21:36:58.938Z,69.31
2022-08-31T21:39:25.361Z,69.18
2022-08-31T21:41:51.972Z,68.99
2022-08-31T21:44:20.788Z,69.33
2022-08-31T21:46:50.793Z,69.67
2022-08-31T21:49:18.563Z,69.83
2022-08-31T21:51:52.033Z,68.66
2022-08-31T21:54:21.932Z,69.70
2022-08-31T21:56:51.501Z,69.72
2022-08-31T21:59:19.764Z,70.14
2022-08-31T22:01:46.902Z,69.93
2022-08-31T22:04:16.111Z,70.36
2022-08-31T22:06:43.085Z,70.74
2022-08-31T22:09:15.812Z,70.84
2022-08-31T22:11:45.993Z,71.21
2022-08-31T22:14:18.262Z,71.11
2022-08-31T22:16:46.527Z,71.03
2022-08-31T22:19:15.542Z,71.25
2022-08-31T22:21:45.440Z,71.52
2022-08-31T22:24:27.855Z,72.04
2022-08-31T22:26:57.264Z,72.39
2022-08-31T22:29:27.427Z,72.24
2022-08-31T22:31:57.518Z,72.61
2022-08-31T22:34:24.716Z,72.56
2022-08-31T22:36:52.961Z,72.55
2022-08-31T22:39:26.211Z,72.82
2022-08-31T22:41:53.012Z,72.90
2022-08-31T22:44:22.607Z,72.39
2022-08-31T22:46:49.093Z,73.05
2022-08-31T22:49:15.579Z,72.65
2022-08-31T22:51:47.417Z,73.65
2022-08-31T22:54:16.044Z,72.93
2022-08-31T22:56:42.574Z,73.38
2022-08-31T22:59:13.215Z,73.70
2022-08-31T23:01:47.454Z,73.22
2022-08-31T23:04:18.795Z,73.49
2022-08-31T23:06:46.500Z,73.46
2022-08-31T23:09:13.065Z,74.09
2022-08-31T23:11:39.710Z,74.11
2022-08-31T23:14:08.929Z,74.57
2022-08-31T23:16:42.500Z,73.90
2022-08-31T23:19:18.191Z,74.21
2022-08-31T23:21:52.642Z,74.55
2022-08-31T23:24:28.641Z,73.56
2022-08-31T23:27:01.680Z,74.10
2022-08-31T23:29:35.727Z,74.37
2022-08-31T23:32:04.171Z,74.05
2022-08-31T23:34:30.787Z,74.75
2022-08-31T23:36:57.441Z,73.83
2022-08-31T23:39:24.544Z,74.11
2022-08-31T23:41:53.247Z,74.46
2022-08-31T23:44:20.399Z,74.50
2022-08-31T23:46:46.997Z,74.55
2022-08-31T23:49:17.613Z,74.75
2022-08-31T23:51:44.472Z,74.68
2022-08-31T23:54:12.370Z,74.70
2022-08-31T23:56:40.706Z,75.16
2022-08-31T23:59:10.544Z,74.78
